sensor_id;sensor_type;location;lat;lon;timestamp;pressure;altitude;pressure_sealevel;temperature;humidity
74936;BME280;63501;55.570;37.488;2023-07-31T00:00:07;98200.94;;;13.40;85.54
74936;BME280;63501;55.570;37.488;2023-07-31T00:02:36;98216.84;;;13.39;86.35
74936;BME280;63501;55.570;37.488;2023-07-31T00:05:04;98199.84;;;13.37;86.34
74936;BME280;63501;55.570;37.488;2023-07-31T00:07:32;98200.72;;;13.34;85.62
74936;BME280;63501;55.570;37.488;2023-07-31T00:09:59;98198.47;;;13.29;85.88
74936;BME280;63501;55.570;37.488;2023-07-31T00:12:26;98211.59;;;13.29;86.45
74936;BME280;63501;55.570;37.488;2023-07-31T00:14:53;98206.38;;;13.31;85.51
74936;BME280;63501;55.570;37.488;2023-07-31T00:17:20;98203.16;;;13.32;86.34
74936;BME280;63501;55.570;37.488;2023-07-31T00:19:49;98199.16;;;13.33;85.90
74936;BME280;63501;55.570;37.488;2023-07-31T00:22:16;98209.94;;;13.31;85.98
74936;BME280;63501;55.570;37.488;2023-07-31T00:24:43;98196.94;;;13.28;86.37
74936;BME280;63501;55.570;37.488;2023-07-31T00:27:10;98205.69;;;13.27;85.98
74936;BME280;63501;55.570;37.488;2023-07-31T00:29:37;98205.78;;;13.23;86.30
74936;BME280;63501;55.570;37.488;2023-07-31T00:32:06;98204.25;;;13.22;86.58
74936;BME280;63501;55.570;37.488;2023-07-31T00:34:33;98199.09;;;13.20;86.89
74936;BME280;63501;55.570;37.488;2023-07-31T00:37:02;98212.97;;;13.20;86.73
74936;BME280;63501;55.570;37.488;2023-07-31T00:39:30;98205.09;;;13.19;86.75
74936;BME280;63501;55.570;37.488;2023-07-31T00:41:57;98210.28;;;13.17;86.49
74936;BME280;63501;55.570;37.488;2023-07-31T00:44:24;98203.63;;;13.14;86.15
74936;BME280;63501;55.570;37.488;2023-07-31T00:46:52;98208.06;;;13.12;86.35
74936;BME280;63501;55.570;37.488;2023-07-31T00:49:20;98199.41;;;13.10;86.86
74936;BME280;63501;55.570;37.488;2023-07-31T00:51:47;98201.41;;;13.09;87.04
74936;BME280;63501;55.570;37.488;2023-07-31T00:54:15;98198.25;;;13.07;86.30
74936;BME280;63501;55.570;37.488;2023-07-31T00:56:45;98193.59;;;13.04;86.40
74936;BME280;63501;55.570;37.488;2023-07-31T00:59:14;98189.69;;;13.02;86.98
74936;BME280;63501;55.570;37.488;2023-07-31T01:01:41;98188.59;;;12.99;86.86
74936;BME280;63501;55.570;37.488;2023-07-31T01:04:08;98189.03;;;12.97;86.89
74936;BME280;63501;55.570;37.488;2023-07-31T01:06:39;98189.91;;;12.94;86.47
74936;BME280;63501;55.570;37.488;2023-07-31T01:09:13;98189.13;;;12.94;86.46
74936;BME280;63501;55.570;37.488;2023-07-31T01:11:50;98193.19;;;12.89;87.46
74936;BME280;63501;55.570;37.488;2023-07-31T01:14:18;98193.31;;;12.86;87.50
74936;BME280;63501;55.570;37.488;2023-07-31T01:16:46;98188.31;;;12.81;86.98
74936;BME280;63501;55.570;37.488;2023-07-31T01:19:14;98176.97;;;12.75;87.30
74936;BME280;63501;55.570;37.488;2023-07-31T01:24:41;98182.59;;;12.71;88.16
74936;BME280;63501;55.570;37.488;2023-07-31T01:27:22;98183.03;;;12.70;87.22
74936;BME280;63501;55.570;37.488;2023-07-31T01:30:00;98181.81;;;12.71;87.48
74936;BME280;63501;55.570;37.488;2023-07-31T01:32:36;98180.59;;;12.72;88.05
74936;BME280;63501;55.570;37.488;2023-07-31T01:35:06;98187.69;;;12.73;87.68
74936;BME280;63501;55.570;37.488;2023-07-31T01:37:34;98184.50;;;12.75;88.45
74936;BME280;63501;55.570;37.488;2023-07-31T01:40:02;98177.38;;;12.74;87.63
74936;BME280;63501;55.570;37.488;2023-07-31T01:42:32;98184.50;;;12.75;88.04
74936;BME280;63501;55.570;37.488;2023-07-31T01:44:59;98186.81;;;12.76;88.14
74936;BME280;63501;55.570;37.488;2023-07-31T01:47:26;98188.38;;;12.77;88.10
74936;BME280;63501;55.570;37.488;2023-07-31T01:49:53;98188.72;;;12.79;88.08
74936;BME280;63501;55.570;37.488;2023-07-31T01:52:20;98186.31;;;12.81;88.78
74936;BME280;63501;55.570;37.488;2023-07-31T01:54:47;98177.53;;;12.83;87.92
74936;BME280;63501;55.570;37.488;2023-07-31T01:57:14;98176.31;;;12.84;89.04
74936;BME280;63501;55.570;37.488;2023-07-31T01:59:43;98178.66;;;12.85;88.41
74936;BME280;63501;55.570;37.488;2023-07-31T02:02:10;98179.00;;;12.87;88.06
74936;BME280;63501;55.570;37.488;2023-07-31T02:04:37;98184.09;;;12.89;88.20
74936;BME280;63501;55.570;37.488;2023-07-31T02:07:05;98181.25;;;12.92;87.78
74936;BME280;63501;55.570;37.488;2023-07-31T02:09:32;98184.16;;;13.02;88.05
74936;BME280;63501;55.570;37.488;2023-07-31T02:11:59;98179.28;;;13.06;87.36
74936;BME280;63501;55.570;37.488;2023-07-31T02:14:27;98182.41;;;13.08;87.60
74936;BME280;63501;55.570;37.488;2023-07-31T02:16:55;98182.41;;;13.08;87.19
74936;BME280;63501;55.570;37.488;2023-07-31T02:19:23;98185.53;;;13.10;87.45
74936;BME280;63501;55.570;37.488;2023-07-31T02:21:50;98181.53;;;13.11;87.92
74936;BME280;63501;55.570;37.488;2023-07-31T02:24:17;98187.41;;;13.13;87.61
74936;BME280;63501;55.570;37.488;2023-07-31T02:26:44;98190.53;;;13.15;87.43
74936;BME280;63501;55.570;37.488;2023-07-31T02:29:11;98190.88;;;13.17;87.89
74936;BME280;63501;55.570;37.488;2023-07-31T02:31:38;98185.13;;;13.24;87.63
74936;BME280;63501;55.570;37.488;2023-07-31T02:34:06;98187.38;;;13.29;87.52
74936;BME280;63501;55.570;37.488;2023-07-31T02:36:33;98193.28;;;13.31;86.76
74936;BME280;63501;55.570;37.488;2023-07-31T02:39:01;98181.72;;;13.33;86.86
74936;BME280;63501;55.570;37.488;2023-07-31T02:41:28;98193.63;;;13.33;86.82
74936;BME280;63501;55.570;37.488;2023-07-31T02:43:55;98191.16;;;13.35;86.82
74936;BME280;63501;55.570;37.488;2023-07-31T02:46:22;98184.41;;;13.36;86.82
74936;BME280;63501;55.570;37.488;2023-07-31T02:48:50;98185.06;;;13.40;87.19
74936;BME280;63501;55.570;37.488;2023-07-31T02:51:19;98178.19;;;13.45;86.72
74936;BME280;63501;55.570;37.488;2023-07-31T02:53:47;98182.75;;;13.52;87.00
74936;BME280;63501;55.570;37.488;2023-07-31T02:56:14;98182.56;;;13.59;86.76
74936;BME280;63501;55.570;37.488;2023-07-31T02:58:41;98177.25;;;13.64;86.62
74936;BME280;63501;55.570;37.488;2023-07-31T03:01:08;98187.69;;;13.73;86.12
74936;BME280;63501;55.570;37.488;2023-07-31T03:03:35;98177.16;;;13.81;86.29
74936;BME280;63501;55.570;37.488;2023-07-31T03:06:02;98176.91;;;13.88;85.97
74936;BME280;63501;55.570;37.488;2023-07-31T03:08:31;98178.69;;;13.94;85.80
74936;BME280;63501;55.570;37.488;2023-07-31T03:10:59;98168.56;;;14.00;85.46
74936;BME280;63501;55.570;37.488;2023-07-31T03:13:26;98172.34;;;14.07;85.79
74936;BME280;63501;55.570;37.488;2023-07-31T03:15:53;98166.56;;;14.14;84.93
74936;BME280;63501;55.570;37.488;2023-07-31T03:18:20;98171.91;;;14.21;84.83
74936;BME280;63501;55.570;37.488;2023-07-31T03:20:47;98175.66;;;14.27;84.83
74936;BME280;63501;55.570;37.488;2023-07-31T03:23:14;98169.88;;;14.34;84.60
74936;BME280;63501;55.570;37.488;2023-07-31T03:25:55;98171.53;;;14.44;84.27
74936;BME280;63501;55.570;37.488;2023-07-31T03:28:22;98169.31;;;14.52;84.62
74936;BME280;63501;55.570;37.488;2023-07-31T03:30:50;98174.50;;;14.63;83.89
74936;BME280;63501;55.570;37.488;2023-07-31T03:33:17;98168.56;;;14.73;84.73
74936;BME280;63501;55.570;37.488;2023-07-31T03:35:44;98169.09;;;14.81;84.33
74936;BME280;63501;55.570;37.488;2023-07-31T03:38:12;98171.19;;;14.90;83.89
74936;BME280;63501;55.570;37.488;2023-07-31T03:40:39;98178.84;;;14.98;82.76
74936;BME280;63501;55.570;37.488;2023-07-31T03:43:07;98165.75;;;15.08;83.20
74936;BME280;63501;55.570;37.488;2023-07-31T03:45:35;98166.91;;;15.20;82.30
74936;BME280;63501;55.570;37.488;2023-07-31T03:48:03;98177.16;;;15.23;81.52
74936;BME280;63501;55.570;37.488;2023-07-31T03:50:30;98172.81;;;15.22;81.70
74936;BME280;63501;55.570;37.488;2023-07-31T03:52:57;98168.34;;;15.24;82.21
74936;BME280;63501;55.570;37.488;2023-07-31T03:55:24;98177.16;;;15.23;81.81
74936;BME280;63501;55.570;37.488;2023-07-31T03:57:52;98174.69;;;15.25;81.33
74936;BME280;63501;55.570;37.488;2023-07-31T04:00:20;98172.88;;;15.31;81.53
74936;BME280;63501;55.570;37.488;2023-07-31T04:02:48;98178.50;;;15.40;81.70
74936;BME280;63501;55.570;37.488;2023-07-31T04:05:15;98182.91;;;15.50;81.34
74936;BME280;63501;55.570;37.488;2023-07-31T04:07:42;98177.72;;;15.61;80.89
74936;BME280;63501;55.570;37.488;2023-07-31T04:10:09;98175.31;;;15.73;81.14
74936;BME280;63501;55.570;37.488;2023-07-31T04:12:36;98178.13;;;15.82;80.36
74936;BME280;63501;55.570;37.488;2023-07-31T04:15:04;98178.19;;;15.91;80.05
74936;BME280;63501;55.570;37.488;2023-07-31T04:17:34;98188.47;;;16.03;80.14
74936;BME280;63501;55.570;37.488;2023-07-31T04:20:01;98187.84;;;16.08;78.95
74936;BME280;63501;55.570;37.488;2023-07-31T04:22:30;98190.66;;;16.08;77.91
74936;BME280;63501;55.570;37.488;2023-07-31T04:24:57;98190.34;;;16.16;77.81
74936;BME280;63501;55.570;37.488;2023-07-31T04:27:24;98188.84;;;16.24;78.42
74936;BME280;63501;55.570;37.488;2023-07-31T04:29:51;98183.28;;;16.33;78.37
74936;BME280;63501;55.570;37.488;2023-07-31T04:32:18;98188.41;;;16.44;78.49
74936;BME280;63501;55.570;37.488;2023-07-31T04:34:48;98179.94;;;16.56;76.99
74936;BME280;63501;55.570;37.488;2023-07-31T04:37:15;98182.72;;;16.65;77.71
74936;BME280;63501;55.570;37.488;2023-07-31T04:39:42;98180.13;;;16.71;76.99
74936;BME280;63501;55.570;37.488;2023-07-31T04:42:09;98184.63;;;16.78;76.19
74936;BME280;63501;55.570;37.488;2023-07-31T04:44:36;98203.56;;;16.83;76.67
74936;BME280;63501;55.570;37.488;2023-07-31T04:47:03;98191.00;;;16.78;74.98
74936;BME280;63501;55.570;37.488;2023-07-31T04:49:32;98198.28;;;16.76;75.41
74936;BME280;63501;55.570;37.488;2023-07-31T04:52:00;98192.69;;;16.76;74.44
74936;BME280;63501;55.570;37.488;2023-07-31T04:54:28;98190.84;;;16.82;74.58
74936;BME280;63501;55.570;37.488;2023-07-31T04:56:55;98198.31;;;16.85;74.94
74936;BME280;63501;55.570;37.488;2023-07-31T04:59:22;98192.69;;;16.94;75.39
74936;BME280;63501;55.570;37.488;2023-07-31T05:01:49;98191.47;;;17.04;75.30
74936;BME280;63501;55.570;37.488;2023-07-31T05:04:16;98194.72;;;17.21;75.57
74936;BME280;63501;55.570;37.488;2023-07-31T05:06:43;98189.28;;;17.36;75.93
74936;BME280;63501;55.570;37.488;2023-07-31T05:09:11;98182.75;;;17.48;75.71
74936;BME280;63501;55.570;37.488;2023-07-31T05:11:39;98194.50;;;17.61;75.27
74936;BME280;63501;55.570;37.488;2023-07-31T05:14:08;98191.56;;;17.74;75.32
74936;BME280;63501;55.570;37.488;2023-07-31T05:16:35;98193.25;;;17.81;73.47
74936;BME280;63501;55.570;37.488;2023-07-31T05:19:02;98194.94;;;17.87;72.91
74936;BME280;63501;55.570;37.488;2023-07-31T05:21:29;98192.88;;;17.97;72.85
74936;BME280;63501;55.570;37.488;2023-07-31T05:23:56;98192.38;;;18.08;74.21
74936;BME280;63501;55.570;37.488;2023-07-31T05:26:25;98186.72;;;18.17;73.45
74936;BME280;63501;55.570;37.488;2023-07-31T05:28:52;98191.53;;;18.26;72.73
74936;BME280;63501;55.570;37.488;2023-07-31T05:31:19;98195.81;;;18.36;72.69
74936;BME280;63501;55.570;37.488;2023-07-31T05:33:48;98196.88;;;18.38;70.14
74936;BME280;63501;55.570;37.488;2023-07-31T05:36:17;98192.19;;;18.44;70.94
74936;BME280;63501;55.570;37.488;2023-07-31T05:38:45;98203.81;;;18.52;70.43
74936;BME280;63501;55.570;37.488;2023-07-31T05:41:12;98201.16;;;18.58;70.19
74936;BME280;63501;55.570;37.488;2023-07-31T05:43:41;98203.75;;;18.61;70.63
74936;BME280;63501;55.570;37.488;2023-07-31T05:46:08;98209.19;;;18.65;69.78
74936;BME280;63501;55.570;37.488;2023-07-31T05:48:37;98211.66;;;18.72;69.99
74936;BME280;63501;55.570;37.488;2023-07-31T05:51:04;98208.78;;;18.81;70.52
74936;BME280;63501;55.570;37.488;2023-07-31T05:53:32;98201.88;;;18.91;71.07
74936;BME280;63501;55.570;37.488;2023-07-31T05:56:00;98206.34;;;18.98;68.50
74936;BME280;63501;55.570;37.488;2023-07-31T05:58:27;98205.03;;;19.08;71.44
74936;BME280;63501;55.570;37.488;2023-07-31T06:00:55;98205.03;;;19.08;67.78
74936;BME280;63501;55.570;37.488;2023-07-31T06:03:22;98199.03;;;19.15;67.70
74936;BME280;63501;55.570;37.488;2023-07-31T06:05:49;98204.44;;;19.19;66.30
74936;BME280;63501;55.570;37.488;2023-07-31T06:08:16;98200.19;;;19.23;66.61
74936;BME280;63501;55.570;37.488;2023-07-31T06:10:44;98203.53;;;19.37;66.18
74936;BME280;63501;55.570;37.488;2023-07-31T06:13:11;98204.28;;;19.52;67.34
74936;BME280;63501;55.570;37.488;2023-07-31T06:15:38;98207.91;;;19.67;67.44
74936;BME280;63501;55.570;37.488;2023-07-31T06:18:06;98202.78;;;19.80;67.17
74936;BME280;63501;55.570;37.488;2023-07-31T06:20:34;98204.44;;;19.87;65.94
74936;BME280;63501;55.570;37.488;2023-07-31T06:23:01;98214.19;;;19.92;66.02
74936;BME280;63501;55.570;37.488;2023-07-31T06:25:29;98211.19;;;19.95;65.07
74936;BME280;63501;55.570;37.488;2023-07-31T06:27:56;98211.00;;;19.99;62.32
74936;BME280;63501;55.570;37.488;2023-07-31T06:30:23;98209.16;;;20.11;64.63
74936;BME280;63501;55.570;37.488;2023-07-31T06:32:50;98207.41;;;20.13;61.35
74936;BME280;63501;55.570;37.488;2023-07-31T06:35:19;98208.34;;;20.25;61.77
74936;BME280;63501;55.570;37.488;2023-07-31T06:37:46;98210.47;;;20.30;59.02
74936;BME280;63501;55.570;37.488;2023-07-31T06:40:13;98225.53;;;20.47;60.61
74936;BME280;63501;55.570;37.488;2023-07-31T06:42:40;98208.69;;;20.47;57.27
74936;BME280;63501;55.570;37.488;2023-07-31T06:45:08;98215.75;;;20.57;59.71
74936;BME280;63501;55.570;37.488;2023-07-31T06:47:36;98219.31;;;20.58;60.13
74936;BME280;63501;55.570;37.488;2023-07-31T06:50:04;98209.50;;;20.68;60.93
74936;BME280;63501;55.570;37.488;2023-07-31T06:52:32;98214.31;;;20.82;61.46
74936;BME280;63501;55.570;37.488;2023-07-31T06:55:04;98216.25;;;20.97;61.38
74936;BME280;63501;55.570;37.488;2023-07-31T06:57:43;98211.53;;;21.08;60.94
74936;BME280;63501;55.570;37.488;2023-07-31T07:00:11;98209.50;;;21.09;57.14
74936;BME280;63501;55.570;37.488;2023-07-31T07:02:38;98211.91;;;21.16;58.62
74936;BME280;63501;55.570;37.488;2023-07-31T07:05:06;98220.47;;;21.27;59.65
74936;BME280;63501;55.570;37.488;2023-07-31T07:07:35;98219.50;;;21.30;58.30
74936;BME280;63501;55.570;37.488;2023-07-31T07:10:03;98223.97;;;21.22;55.08
74936;BME280;63501;55.570;37.488;2023-07-31T07:12:32;98231.34;;;21.20;55.30
74936;BME280;63501;55.570;37.488;2023-07-31T07:15:01;98234.31;;;21.31;56.98
74936;BME280;63501;55.570;37.488;2023-07-31T07:20:00;98221.97;;;21.49;56.39
74936;BME280;63501;55.570;37.488;2023-07-31T07:22:31;98221.50;;;21.50;55.39
74936;BME280;63501;55.570;37.488;2023-07-31T07:25:00;98220.00;;;21.55;55.14
74936;BME280;63501;55.570;37.488;2023-07-31T07:27:30;98224.19;;;21.65;54.64
74936;BME280;63501;55.570;37.488;2023-07-31T07:29:57;98227.63;;;21.75;54.88
74936;BME280;63501;55.570;37.488;2023-07-31T07:32:25;98220.78;;;21.81;55.44
74936;BME280;63501;55.570;37.488;2023-07-31T07:34:52;98220.38;;;21.94;55.90
74936;BME280;63501;55.570;37.488;2023-07-31T07:37:19;98221.38;;;21.91;53.72
74936;BME280;63501;55.570;37.488;2023-07-31T07:39:46;98230.31;;;21.89;52.53
74936;BME280;63501;55.570;37.488;2023-07-31T07:42:15;98225.06;;;22.03;54.66
74936;BME280;63501;55.570;37.488;2023-07-31T07:44:42;98229.31;;;21.92;50.22
74936;BME280;63501;55.570;37.488;2023-07-31T07:47:09;98226.50;;;21.92;50.42
74936;BME280;63501;55.570;37.488;2023-07-31T07:49:36;98230.41;;;22.01;50.76
74936;BME280;63501;55.570;37.488;2023-07-31T07:52:04;98235.19;;;22.21;52.90
74936;BME280;63501;55.570;37.488;2023-07-31T07:54:31;98232.25;;;22.35;51.10
74936;BME280;63501;55.570;37.488;2023-07-31T07:56:59;98216.72;;;22.46;52.45
74936;BME280;63501;55.570;37.488;2023-07-31T07:59:27;98218.22;;;22.41;50.74
74936;BME280;63501;55.570;37.488;2023-07-31T08:01:55;98230.84;;;22.57;52.84
74936;BME280;63501;55.570;37.488;2023-07-31T08:04:23;98228.41;;;22.76;52.48
74936;BME280;63501;55.570;37.488;2023-07-31T08:06:50;98234.16;;;22.92;51.78
74936;BME280;63501;55.570;37.488;2023-07-31T08:09:17;98235.25;;;23.12;50.17
74936;BME280;63501;55.570;37.488;2023-07-31T08:11:44;98227.41;;;23.44;51.46
74936;BME280;63501;55.570;37.488;2023-07-31T08:14:11;98230.31;;;23.66;51.85
74936;BME280;63501;55.570;37.488;2023-07-31T08:16:40;98227.00;;;23.90;51.18
74936;BME280;63501;55.570;37.488;2023-07-31T08:19:07;98232.66;;;24.13;49.88
74936;BME280;63501;55.570;37.488;2023-07-31T08:21:34;98229.06;;;24.29;49.65
74936;BME280;63501;55.570;37.488;2023-07-31T08:24:01;98228.81;;;24.55;49.32
74936;BME280;63501;55.570;37.488;2023-07-31T08:26:28;98232.41;;;24.61;48.60
74936;BME280;63501;55.570;37.488;2023-07-31T08:28:55;98223.38;;;24.74;48.66
74936;BME280;63501;55.570;37.488;2023-07-31T08:31:23;98223.38;;;24.63;44.46
74936;BME280;63501;55.570;37.488;2023-07-31T08:33:51;98230.88;;;24.49;46.72
74936;BME280;63501;55.570;37.488;2023-07-31T08:36:18;98243.94;;;24.58;48.19
74936;BME280;63501;55.570;37.488;2023-07-31T08:38:45;98238.53;;;24.71;48.81
74936;BME280;63501;55.570;37.488;2023-07-31T08:41:13;98235.47;;;24.58;47.40
74936;BME280;63501;55.570;37.488;2023-07-31T08:43:42;98243.44;;;24.65;48.27
74936;BME280;63501;55.570;37.488;2023-07-31T08:46:10;98232.88;;;24.82;48.41
74936;BME280;63501;55.570;37.488;2023-07-31T08:48:41;98230.78;;;24.94;48.03
74936;BME280;63501;55.570;37.488;2023-07-31T08:51:11;98232.28;;;25.06;48.25
74936;BME280;63501;55.570;37.488;2023-07-31T08:53:38;98239.03;;;24.80;43.83
74936;BME280;63501;55.570;37.488;2023-07-31T08:56:05;98250.41;;;24.47;42.68
74936;BME280;63501;55.570;37.488;2023-07-31T08:58:33;98252.19;;;24.33;41.97
74936;BME280;63501;55.570;37.488;2023-07-31T09:01:03;98251.19;;;24.47;42.97
74936;BME280;63501;55.570;37.488;2023-07-31T09:03:33;98252.56;;;25.16;44.34
74936;BME280;63501;55.570;37.488;2023-07-31T09:06:02;98231.16;;;26.93;42.59
74936;BME280;63501;55.570;37.488;2023-07-31T09:08:33;98220.03;;;29.25;39.60
74936;BME280;63501;55.570;37.488;2023-07-31T09:11:02;98207.88;;;31.13;35.77
74936;BME280;63501;55.570;37.488;2023-07-31T09:13:31;98199.66;;;33.45;32.94
74936;BME280;63501;55.570;37.488;2023-07-31T09:15:58;98188.94;;;35.03;31.30
74936;BME280;63501;55.570;37.488;2023-07-31T09:18:25;98183.72;;;35.80;28.02
74936;BME280;63501;55.570;37.488;2023-07-31T09:21:03;98187.84;;;36.14;27.86
74936;BME280;63501;55.570;37.488;2023-07-31T09:23:42;98192.72;;;36.21;27.06
74936;BME280;63501;55.570;37.488;2023-07-31T09:26:10;98199.28;;;35.94;28.41
74936;BME280;63501;55.570;37.488;2023-07-31T09:28:37;98185.59;;;37.75;29.00
74936;BME280;63501;55.570;37.488;2023-07-31T09:31:04;98179.59;;;39.61;28.96
74936;BME280;63501;55.570;37.488;2023-07-31T09:33:31;98173.13;;;41.92;27.93
74936;BME280;63501;55.570;37.488;2023-07-31T09:36:01;98159.22;;;44.68;24.39
74936;BME280;63501;55.570;37.488;2023-07-31T09:38:31;98137.53;;;46.58;22.06
74936;BME280;63501;55.570;37.488;2023-07-31T09:41:00;98156.69;;;45.12;23.20
74936;BME280;63501;55.570;37.488;2023-07-31T09:43:27;98174.66;;;42.07;24.96
74936;BME280;63501;55.570;37.488;2023-07-31T09:45:55;98203.25;;;38.10;28.00
74936;BME280;63501;55.570;37.488;2023-07-31T09:48:24;98227.00;;;34.86;31.80
74936;BME280;63501;55.570;37.488;2023-07-31T09:50:53;98227.72;;;35.73;30.49
74936;BME280;63501;55.570;37.488;2023-07-31T09:53:28;98207.56;;;39.14;26.73
74936;BME280;63501;55.570;37.488;2023-07-31T09:55:58;98195.75;;;39.43;26.64
74936;BME280;63501;55.570;37.488;2023-07-31T09:58:28;98213.41;;;37.02;28.77
74936;BME280;63501;55.570;37.488;2023-07-31T10:00:57;98233.25;;;34.25;30.54
74936;BME280;63501;55.570;37.488;2023-07-31T10:03:26;98241.59;;;32.18;33.28
74936;BME280;63501;55.570;37.488;2023-07-31T10:05:55;98252.34;;;30.51;34.24
74936;BME280;63501;55.570;37.488;2023-07-31T10:08:27;98257.38;;;30.38;35.45
74936;BME280;63501;55.570;37.488;2023-07-31T10:10:58;98229.63;;;33.91;32.28
74936;BME280;63501;55.570;37.488;2023-07-31T10:13:28;98211.59;;;37.55;28.76
74936;BME280;63501;55.570;37.488;2023-07-31T10:15:58;98214.03;;;37.49;28.64
74936;BME280;63501;55.570;37.488;2023-07-31T10:18:26;98201.91;;;38.11;27.89
74936;BME280;63501;55.570;37.488;2023-07-31T10:20:54;98205.38;;;38.09;27.12
74936;BME280;63501;55.570;37.488;2023-07-31T10:23:22;98214.63;;;37.09;28.00
74936;BME280;63501;55.570;37.488;2023-07-31T10:25:50;98235.56;;;35.45;30.00
74936;BME280;63501;55.570;37.488;2023-07-31T10:28:18;98242.47;;;33.42;30.95
74936;BME280;63501;55.570;37.488;2023-07-31T10:30:53;98258.06;;;31.29;32.97
74936;BME280;63501;55.570;37.488;2023-07-31T10:33:21;98264.25;;;29.00;35.02
74936;BME280;63501;55.570;37.488;2023-07-31T10:35:48;98277.31;;;27.99;36.37
74936;BME280;63501;55.570;37.488;2023-07-31T10:38:19;98278.31;;;27.64;37.91
74936;BME280;63501;55.570;37.488;2023-07-31T10:40:46;98281.84;;;27.08;36.74
74936;BME280;63501;55.570;37.488;2023-07-31T10:43:23;98295.47;;;26.60;36.29
74936;BME280;63501;55.570;37.488;2023-07-31T10:45:53;98290.13;;;26.16;38.61
74936;BME280;63501;55.570;37.488;2023-07-31T10:48:20;98295.16;;;25.98;38.50
74936;BME280;63501;55.570;37.488;2023-07-31T10:50:49;98274.19;;;28.80;36.61
74936;BME280;63501;55.570;37.488;2023-07-31T10:53:24;98249.03;;;32.05;33.27
74936;BME280;63501;55.570;37.488;2023-07-31T10:55:51;98243.72;;;34.80;31.65
74936;BME280;63501;55.570;37.488;2023-07-31T10:58:19;98231.00;;;36.41;29.46
74936;BME280;63501;55.570;37.488;2023-07-31T11:00:47;98226.00;;;37.17;27.48
74936;BME280;63501;55.570;37.488;2023-07-31T11:03:17;98224.69;;;38.07;27.03
74936;BME280;63501;55.570;37.488;2023-07-31T11:05:51;98240.00;;;36.64;26.68
74936;BME280;63501;55.570;37.488;2023-07-31T11:08:21;98240.78;;;33.80;28.91
74936;BME280;63501;55.570;37.488;2023-07-31T11:10:50;98240.38;;;33.35;32.37
74936;BME280;63501;55.570;37.488;2023-07-31T11:13:18;98244.16;;;33.38;32.19
74936;BME280;63501;55.570;37.488;2023-07-31T11:15:45;98246.16;;;33.20;31.28
74936;BME280;63501;55.570;37.488;2023-07-31T11:18:12;98249.56;;;32.04;31.31
74936;BME280;63501;55.570;37.488;2023-07-31T11:20:42;98271.72;;;30.95;31.83
74936;BME280;63501;55.570;37.488;2023-07-31T11:23:10;98275.53;;;30.48;32.43
74936;BME280;63501;55.570;37.488;2023-07-31T11:25:39;98249.53;;;31.37;32.13
74936;BME280;63501;55.570;37.488;2023-07-31T11:28:09;98244.84;;;33.61;30.61
74936;BME280;63501;55.570;37.488;2023-07-31T11:30:37;98240.34;;;33.83;29.79
74936;BME280;63501;55.570;37.488;2023-07-31T11:33:05;98249.28;;;32.69;31.24
74936;BME280;63501;55.570;37.488;2023-07-31T11:35:34;98262.66;;;31.04;32.57
74936;BME280;63501;55.570;37.488;2023-07-31T11:38:03;98268.41;;;30.62;32.86
74936;BME280;63501;55.570;37.488;2023-07-31T11:40:30;98268.34;;;30.13;32.75
74936;BME280;63501;55.570;37.488;2023-07-31T11:42:57;98264.59;;;30.18;33.85
74936;BME280;63501;55.570;37.488;2023-07-31T11:45:26;98261.13;;;29.77;34.29
74936;BME280;63501;55.570;37.488;2023-07-31T11:47:55;98270.22;;;29.76;34.78
74936;BME280;63501;55.570;37.488;2023-07-31T11:50:23;98279.66;;;28.91;34.22
74936;BME280;63501;55.570;37.488;2023-07-31T11:52:55;98273.00;;;29.29;34.68
74936;BME280;63501;55.570;37.488;2023-07-31T11:55:25;98275.75;;;29.47;34.24
74936;BME280;63501;55.570;37.488;2023-07-31T11:57:56;98275.94;;;29.49;35.04
74936;BME280;63501;55.570;37.488;2023-07-31T12:00:25;98278.22;;;29.51;34.41
74936;BME280;63501;55.570;37.488;2023-07-31T12:02:53;98275.75;;;30.71;33.35
74936;BME280;63501;55.570;37.488;2023-07-31T12:05:22;98259.34;;;32.31;31.94
74936;BME280;63501;55.570;37.488;2023-07-31T12:07:50;98247.50;;;33.67;30.62
74936;BME280;63501;55.570;37.488;2023-07-31T12:10:27;98248.31;;;34.58;27.42
74936;BME280;63501;55.570;37.488;2023-07-31T12:13:02;98240.97;;;34.64;26.61
74936;BME280;63501;55.570;37.488;2023-07-31T12:15:34;98249.38;;;35.74;26.38
74936;BME280;63501;55.570;37.488;2023-07-31T12:18:04;98230.47;;;36.71;25.11
74936;BME280;63501;55.570;37.488;2023-07-31T12:20:32;98236.63;;;37.43;24.41
74936;BME280;63501;55.570;37.488;2023-07-31T12:22:59;98226.22;;;38.80;23.84
74936;BME280;63501;55.570;37.488;2023-07-31T12:25:34;98231.44;;;38.41;22.08
74936;BME280;63501;55.570;37.488;2023-07-31T12:28:06;98237.31;;;38.11;22.18
74936;BME280;63501;55.570;37.488;2023-07-31T12:30:38;98228.13;;;38.34;23.00
74936;BME280;63501;55.570;37.488;2023-07-31T12:33:07;98223.69;;;39.83;23.20
74936;BME280;63501;55.570;37.488;2023-07-31T12:35:41;98230.69;;;40.13;21.57
74936;BME280;63501;55.570;37.488;2023-07-31T12:38:08;98236.13;;;39.74;21.52
74936;BME280;63501;55.570;37.488;2023-07-31T12:40:38;98227.09;;;39.04;21.57
74936;BME280;63501;55.570;37.488;2023-07-31T12:43:06;98226.50;;;39.27;21.81
74936;BME280;63501;55.570;37.488;2023-07-31T12:45:33;98231.34;;;40.59;21.69
74936;BME280;63501;55.570;37.488;2023-07-31T12:48:01;98232.22;;;39.70;20.57
74936;BME280;63501;55.570;37.488;2023-07-31T12:50:28;98241.41;;;39.45;20.43
74936;BME280;63501;55.570;37.488;2023-07-31T12:52:56;98229.94;;;39.13;20.86
74936;BME280;63501;55.570;37.488;2023-07-31T12:55:24;98227.25;;;38.84;21.18
74936;BME280;63501;55.570;37.488;2023-07-31T12:57:52;98245.94;;;36.76;22.29
74936;BME280;63501;55.570;37.488;2023-07-31T13:00:19;98257.44;;;35.23;23.85